sensor_id;sensor_type;location;lat;lon;timestamp;P1;durP1;ratioP1;P2;durP2;ratioP2
36205;SDS011;22242;48.796;9.930;2022-07-06T00:01:24;6.45;;;2.10;;
36205;SDS011;22242;48.796;9.930;2022-07-06T00:03:51;3.70;;;2.00;;
36205;SDS011;22242;48.796;9.930;2022-07-06T00:06:20;2.88;;;1.77;;
36205;SDS011;22242;48.796;9.930;2022-07-06T00:08:47;3.17;;;1.92;;
36205;SDS011;22242;48.796;9.930;2022-07-06T00:11:14;3.70;;;2.42;;
36205;SDS011;22242;48.796;9.930;2022-07-06T00:13:41;5.00;;;2.08;;
36205;SDS011;22242;48.796;9.930;2022-07-06T00:16:08;4.47;;;2.10;;
36205;SDS011;22242;48.796;9.930;2022-07-06T00:18:36;5.20;;;2.20;;
36205;SDS011;22242;48.796;9.930;2022-07-06T00:21:03;3.65;;;1.80;;
36205;SDS011;22242;48.796;9.930;2022-07-06T00:23:31;5.95;;;2.10;;
36205;SDS011;22242;48.796;9.930;2022-07-06T00:25:58;3.47;;;2.08;;
36205;SDS011;22242;48.796;9.930;2022-07-06T00:28:25;4.20;;;2.00;;
36205;SDS011;22242;48.796;9.930;2022-07-06T00:30:52;3.80;;;2.22;;
36205;SDS011;22242;48.796;9.930;2022-07-06T00:33:20;4.00;;;2.30;;
36205;SDS011;22242;48.796;9.930;2022-07-06T00:35:47;4.97;;;2.42;;
36205;SDS011;22242;48.796;9.930;2022-07-06T00:38:14;4.25;;;2.25;;
36205;SDS011;22242;48.796;9.930;2022-07-06T00:40:43;4.93;;;2.65;;
36205;SDS011;22242;48.796;9.930;2022-07-06T00:43:10;5.25;;;2.47;;
36205;SDS011;22242;48.796;9.930;2022-07-06T00:45:37;5.13;;;2.33;;
36205;SDS011;22242;48.796;9.930;2022-07-06T00:48:04;2.45;;;1.67;;
36205;SDS011;22242;48.796;9.930;2022-07-06T00:50:32;2.17;;;1.70;;
36205;SDS011;22242;48.796;9.930;2022-07-06T00:53:01;5.03;;;2.15;;
36205;SDS011;22242;48.796;9.930;2022-07-06T00:55:30;2.97;;;2.30;;
36205;SDS011;22242;48.796;9.930;2022-07-06T00:58:03;3.08;;;2.22;;
36205;SDS011;22242;48.796;9.930;2022-07-06T01:00:32;3.55;;;2.28;;
36205;SDS011;22242;48.796;9.930;2022-07-06T01:03:00;4.75;;;2.47;;
36205;SDS011;22242;48.796;9.930;2022-07-06T01:05:28;4.68;;;2.28;;
36205;SDS011;22242;48.796;9.930;2022-07-06T01:07:55;3.88;;;2.42;;
36205;SDS011;22242;48.796;9.930;2022-07-06T01:10:22;5.90;;;2.47;;
36205;SDS011;22242;48.796;9.930;2022-07-06T01:12:50;5.43;;;2.28;;
36205;SDS011;22242;48.796;9.930;2022-07-06T01:15:19;2.72;;;1.83;;
36205;SDS011;22242;48.796;9.930;2022-07-06T01:17:49;2.95;;;2.30;;
36205;SDS011;22242;48.796;9.930;2022-07-06T01:20:22;3.80;;;2.03;;
36205;SDS011;22242;48.796;9.930;2022-07-06T01:22:50;3.15;;;2.20;;
36205;SDS011;22242;48.796;9.930;2022-07-06T01:28:00;4.55;;;2.10;;
36205;SDS011;22242;48.796;9.930;2022-07-06T01:30:29;3.42;;;2.30;;
36205;SDS011;22242;48.796;9.930;2022-07-06T01:32:56;3.25;;;2.45;;
36205;SDS011;22242;48.796;9.930;2022-07-06T01:35:24;4.78;;;2.50;;
36205;SDS011;22242;48.796;9.930;2022-07-06T01:37:56;2.50;;;2.20;;
36205;SDS011;22242;48.796;9.930;2022-07-06T01:40:23;2.28;;;2.08;;
36205;SDS011;22242;48.796;9.930;2022-07-06T01:42:50;2.45;;;2.13;;
36205;SDS011;22242;48.796;9.930;2022-07-06T01:45:18;4.10;;;2.10;;
36205;SDS011;22242;48.796;9.930;2022-07-06T01:47:45;4.60;;;2.40;;
36205;SDS011;22242;48.796;9.930;2022-07-06T01:50:12;6.15;;;2.30;;
36205;SDS011;22242;48.796;9.930;2022-07-06T01:52:44;9.57;;;2.50;;
36205;SDS011;22242;48.796;9.930;2022-07-06T01:55:12;3.65;;;2.70;;
36205;SDS011;22242;48.796;9.930;2022-07-06T01:57:39;6.47;;;2.05;;
36205;SDS011;22242;48.796;9.930;2022-07-06T02:00:09;3.20;;;2.25;;
36205;SDS011;22242;48.796;9.930;2022-07-06T02:02:40;2.03;;;1.85;;
36205;SDS011;22242;48.796;9.930;2022-07-06T02:05:10;2.97;;;2.70;;
36205;SDS011;22242;48.796;9.930;2022-07-06T02:07:37;2.75;;;2.50;;
36205;SDS011;22242;48.796;9.930;2022-07-06T02:10:08;3.83;;;2.10;;
36205;SDS011;22242;48.796;9.930;2022-07-06T02:12:35;3.03;;;2.15;;
36205;SDS011;22242;48.796;9.930;2022-07-06T02:15:02;3.42;;;1.95;;
36205;SDS011;22242;48.796;9.930;2022-07-06T02:17:29;4.70;;;2.53;;
36205;SDS011;22242;48.796;9.930;2022-07-06T02:19:56;3.10;;;2.03;;
36205;SDS011;22242;48.796;9.930;2022-07-06T02:22:23;2.63;;;2.17;;
36205;SDS011;22242;48.796;9.930;2022-07-06T02:24:50;2.80;;;2.42;;
36205;SDS011;22242;48.796;9.930;2022-07-06T02:27:19;2.42;;;2.20;;
36205;SDS011;22242;48.796;9.930;2022-07-06T02:29:47;2.40;;;2.20;;
36205;SDS011;22242;48.796;9.930;2022-07-06T02:32:14;2.58;;;2.30;;
36205;SDS011;22242;48.796;9.930;2022-07-06T02:34:41;2.67;;;2.45;;
36205;SDS011;22242;48.796;9.930;2022-07-06T02:37:08;4.18;;;2.55;;
36205;SDS011;22242;48.796;9.930;2022-07-06T02:39:35;5.30;;;2.55;;
36205;SDS011;22242;48.796;9.930;2022-07-06T02:42:03;3.83;;;2.70;;
36205;SDS011;22242;48.796;9.930;2022-07-06T02:44:32;4.75;;;2.58;;
36205;SDS011;22242;48.796;9.930;2022-07-06T02:46:59;3.67;;;2.20;;
36205;SDS011;22242;48.796;9.930;2022-07-06T02:49:26;2.60;;;2.40;;
36205;SDS011;22242;48.796;9.930;2022-07-06T02:51:53;3.08;;;2.30;;
36205;SDS011;22242;48.796;9.930;2022-07-06T02:54:21;3.75;;;2.72;;
36205;SDS011;22242;48.796;9.930;2022-07-06T02:56:49;3.67;;;2.30;;
36205;SDS011;22242;48.796;9.930;2022-07-06T02:59:19;4.70;;;2.55;;
36205;SDS011;22242;48.796;9.930;2022-07-06T03:01:47;5.32;;;2.97;;
36205;SDS011;22242;48.796;9.930;2022-07-06T03:04:16;3.10;;;2.80;;
36205;SDS011;22242;48.796;9.930;2022-07-06T03:06:43;3.17;;;2.80;;
36205;SDS011;22242;48.796;9.930;2022-07-06T03:09:11;3.63;;;2.72;;
36205;SDS011;22242;48.796;9.930;2022-07-06T03:11:38;4.15;;;2.67;;
36205;SDS011;22242;48.796;9.930;2022-07-06T03:14:05;4.13;;;2.63;;
36205;SDS011;22242;48.796;9.930;2022-07-06T03:16:35;3.53;;;2.92;;
36205;SDS011;22242;48.796;9.930;2022-07-06T03:19:04;4.18;;;2.53;;
36205;SDS011;22242;48.796;9.930;2022-07-06T03:21:32;3.15;;;2.40;;
36205;SDS011;22242;48.796;9.930;2022-07-06T03:24:00;5.30;;;3.13;;
36205;SDS011;22242;48.796;9.930;2022-07-06T03:26:27;2.80;;;2.60;;
36205;SDS011;22242;48.796;9.930;2022-07-06T03:28:54;3.10;;;2.75;;
36205;SDS011;22242;48.796;9.930;2022-07-06T03:31:21;3.28;;;2.78;;
36205;SDS011;22242;48.796;9.930;2022-07-06T03:33:49;5.57;;;2.75;;
36205;SDS011;22242;48.796;9.930;2022-07-06T03:36:17;3.20;;;2.70;;
36205;SDS011;22242;48.796;9.930;2022-07-06T03:38:45;4.00;;;2.72;;
36205;SDS011;22242;48.796;9.930;2022-07-06T03:41:12;5.65;;;2.75;;
36205;SDS011;22242;48.796;9.930;2022-07-06T03:43:40;5.30;;;3.13;;
36205;SDS011;22242;48.796;9.930;2022-07-06T03:46:07;3.35;;;3.05;;
36205;SDS011;22242;48.796;9.930;2022-07-06T03:48:35;4.80;;;3.13;;
36205;SDS011;22242;48.796;9.930;2022-07-06T03:51:04;3.83;;;2.70;;
36205;SDS011;22242;48.796;9.930;2022-07-06T03:53:34;3.03;;;2.72;;
36205;SDS011;22242;48.796;9.930;2022-07-06T03:56:01;3.75;;;2.88;;
36205;SDS011;22242;48.796;9.930;2022-07-06T03:58:46;4.15;;;2.75;;
36205;SDS011;22242;48.796;9.930;2022-07-06T04:01:13;3.40;;;2.75;;
36205;SDS011;22242;48.796;9.930;2022-07-06T04:03:40;5.85;;;3.38;;
36205;SDS011;22242;48.796;9.930;2022-07-06T04:06:08;6.38;;;3.75;;
36205;SDS011;22242;48.796;9.930;2022-07-06T04:08:37;10.55;;;3.05;;
36205;SDS011;22242;48.796;9.930;2022-07-06T04:11:05;3.90;;;2.88;;
36205;SDS011;22242;48.796;9.930;2022-07-06T04:13:34;5.80;;;2.85;;
36205;SDS011;22242;48.796;9.930;2022-07-06T04:16:03;4.50;;;2.72;;
36205;SDS011;22242;48.796;9.930;2022-07-06T04:18:30;3.63;;;3.17;;
36205;SDS011;22242;48.796;9.930;2022-07-06T04:20:58;4.75;;;2.95;;
36205;SDS011;22242;48.796;9.930;2022-07-06T04:23:27;2.90;;;2.65;;
36205;SDS011;22242;48.796;9.930;2022-07-06T04:25:56;7.05;;;2.90;;
36205;SDS011;22242;48.796;9.930;2022-07-06T04:28:24;4.85;;;2.67;;
36205;SDS011;22242;48.796;9.930;2022-07-06T04:30:51;4.22;;;2.60;;
36205;SDS011;22242;48.796;9.930;2022-07-06T04:33:21;4.90;;;2.83;;
36205;SDS011;22242;48.796;9.930;2022-07-06T04:35:49;3.15;;;2.85;;
36205;SDS011;22242;48.796;9.930;2022-07-06T04:38:18;4.70;;;2.80;;
36205;SDS011;22242;48.796;9.930;2022-07-06T04:40:47;4.50;;;2.50;;
36205;SDS011;22242;48.796;9.930;2022-07-06T04:43:18;5.13;;;2.95;;
36205;SDS011;22242;48.796;9.930;2022-07-06T04:45:45;2.67;;;2.47;;
36205;SDS011;22242;48.796;9.930;2022-07-06T04:48:12;4.95;;;2.63;;
36205;SDS011;22242;48.796;9.930;2022-07-06T04:50:39;2.70;;;2.50;;
36205;SDS011;22242;48.796;9.930;2022-07-06T04:53:11;3.78;;;2.55;;
36205;SDS011;22242;48.796;9.930;2022-07-06T04:55:38;4.00;;;2.50;;
36205;SDS011;22242;48.796;9.930;2022-07-06T04:58:06;3.38;;;2.67;;
36205;SDS011;22242;48.796;9.930;2022-07-06T05:00:35;4.28;;;2.65;;
36205;SDS011;22242;48.796;9.930;2022-07-06T05:03:02;3.95;;;2.65;;
36205;SDS011;22242;48.796;9.930;2022-07-06T05:05:30;3.65;;;3.10;;
36205;SDS011;22242;48.796;9.930;2022-07-06T05:07:59;4.10;;;3.10;;
36205;SDS011;22242;48.796;9.930;2022-07-06T05:10:27;4.53;;;2.90;;
36205;SDS011;22242;48.796;9.930;2022-07-06T05:12:56;5.10;;;2.70;;
36205;SDS011;22242;48.796;9.930;2022-07-06T05:15:25;2.97;;;2.65;;
36205;SDS011;22242;48.796;9.930;2022-07-06T05:17:54;5.55;;;2.70;;
36205;SDS011;22242;48.796;9.930;2022-07-06T05:20:22;4.57;;;3.17;;
36205;SDS011;22242;48.796;9.930;2022-07-06T05:22:49;6.18;;;2.80;;
36205;SDS011;22242;48.796;9.930;2022-07-06T05:25:20;4.68;;;2.45;;
36205;SDS011;22242;48.796;9.930;2022-07-06T05:27:47;4.38;;;2.58;;
36205;SDS011;22242;48.796;9.930;2022-07-06T05:30:14;5.28;;;2.45;;
36205;SDS011;22242;48.796;9.930;2022-07-06T05:32:42;3.75;;;2.47;;
36205;SDS011;22242;48.796;9.930;2022-07-06T05:35:11;6.32;;;2.90;;
36205;SDS011;22242;48.796;9.930;2022-07-06T05:37:38;6.55;;;2.75;;
36205;SDS011;22242;48.796;9.930;2022-07-06T05:40:06;3.88;;;2.80;;
36205;SDS011;22242;48.796;9.930;2022-07-06T05:42:35;3.95;;;2.45;;
36205;SDS011;22242;48.796;9.930;2022-07-06T05:45:03;5.55;;;2.92;;
36205;SDS011;22242;48.796;9.930;2022-07-06T05:47:30;7.30;;;2.75;;
36205;SDS011;22242;48.796;9.930;2022-07-06T05:50:17;3.38;;;2.63;;
36205;SDS011;22242;48.796;9.930;2022-07-06T05:52:55;4.10;;;2.58;;
36205;SDS011;22242;48.796;9.930;2022-07-06T05:55:23;4.25;;;2.47;;
36205;SDS011;22242;48.796;9.930;2022-07-06T05:57:51;5.70;;;2.53;;
36205;SDS011;22242;48.796;9.930;2022-07-06T06:00:19;3.42;;;2.72;;
36205;SDS011;22242;48.796;9.930;2022-07-06T06:02:52;9.95;;;2.40;;
36205;SDS011;22242;48.796;9.930;2022-07-06T06:05:21;4.05;;;2.58;;
36205;SDS011;22242;48.796;9.930;2022-07-06T06:07:51;3.05;;;2.75;;
36205;SDS011;22242;48.796;9.930;2022-07-06T06:10:22;5.30;;;2.50;;
36205;SDS011;22242;48.796;9.930;2022-07-06T06:12:53;5.47;;;2.60;;
36205;SDS011;22242;48.796;9.930;2022-07-06T06:15:20;3.83;;;2.60;;
36205;SDS011;22242;48.796;9.930;2022-07-06T06:17:48;3.63;;;2.67;;
36205;SDS011;22242;48.796;9.930;2022-07-06T06:20:14;5.28;;;2.53;;
36205;SDS011;22242;48.796;9.930;2022-07-06T06:22:47;2.88;;;2.22;;
36205;SDS011;22242;48.796;9.930;2022-07-06T06:25:15;3.92;;;2.60;;
36205;SDS011;22242;48.796;9.930;2022-07-06T06:27:43;3.30;;;2.45;;
36205;SDS011;22242;48.796;9.930;2022-07-06T06:30:11;2.50;;;2.30;;
36205;SDS011;22242;48.796;9.930;2022-07-06T06:32:39;4.63;;;2.20;;
36205;SDS011;22242;48.796;9.930;2022-07-06T06:35:06;6.10;;;2.00;;
36205;SDS011;22242;48.796;9.930;2022-07-06T06:37:33;2.67;;;1.88;;
36205;SDS011;22242;48.796;9.930;2022-07-06T06:40:03;1.83;;;1.65;;
36205;SDS011;22242;48.796;9.930;2022-07-06T06:42:31;12.00;;;2.05;;
36205;SDS011;22242;48.796;9.930;2022-07-06T06:44:59;2.22;;;2.00;;
36205;SDS011;22242;48.796;9.930;2022-07-06T06:47:27;2.50;;;2.00;;
36205;SDS011;22242;48.796;9.930;2022-07-06T06:49:53;2.13;;;1.92;;
36205;SDS011;22242;48.796;9.930;2022-07-06T06:52:21;3.28;;;1.95;;
36205;SDS011;22242;48.796;9.930;2022-07-06T06:54:48;3.97;;;2.08;;
36205;SDS011;22242;48.796;9.930;2022-07-06T06:57:17;7.35;;;2.03;;
36205;SDS011;22242;48.796;9.930;2022-07-06T06:59:43;3.67;;;1.85;;
36205;SDS011;22242;48.796;9.930;2022-07-06T07:02:10;1.95;;;1.67;;
36205;SDS011;22242;48.796;9.930;2022-07-06T07:04:37;3.88;;;1.90;;
36205;SDS011;22242;48.796;9.930;2022-07-06T07:07:04;3.47;;;2.10;;
36205;SDS011;22242;48.796;9.930;2022-07-06T07:09:31;2.75;;;1.98;;
36205;SDS011;22242;48.796;9.930;2022-07-06T07:11:58;3.95;;;2.00;;
36205;SDS011;22242;48.796;9.930;2022-07-06T07:14:26;2.30;;;1.77;;
36205;SDS011;22242;48.796;9.930;2022-07-06T07:16:54;1.98;;;1.80;;
36205;SDS011;22242;48.796;9.930;2022-07-06T07:19:21;2.42;;;1.85;;
36205;SDS011;22242;48.796;9.930;2022-07-06T07:21:48;2.78;;;2.08;;
36205;SDS011;22242;48.796;9.930;2022-07-06T07:24:15;2.25;;;1.63;;
36205;SDS011;22242;48.796;9.930;2022-07-06T07:26:42;4.25;;;2.00;;
36205;SDS011;22242;48.796;9.930;2022-07-06T07:29:09;3.67;;;1.92;;
36205;SDS011;22242;48.796;9.930;2022-07-06T07:31:37;4.80;;;1.67;;
36205;SDS011;22242;48.796;9.930;2022-07-06T07:34:04;2.72;;;1.83;;
36205;SDS011;22242;48.796;9.930;2022-07-06T07:36:31;2.70;;;1.52;;
36205;SDS011;22242;48.796;9.930;2022-07-06T07:38:58;3.80;;;1.75;;
36205;SDS011;22242;48.796;9.930;2022-07-06T07:41:25;3.92;;;1.77;;
36205;SDS011;22242;48.796;9.930;2022-07-06T07:43:52;2.15;;;1.95;;
36205;SDS011;22242;48.796;9.930;2022-07-06T07:46:19;1.55;;;1.45;;
36205;SDS011;22242;48.796;9.930;2022-07-06T07:48:48;2.47;;;1.80;;
36205;SDS011;22242;48.796;9.930;2022-07-06T07:51:16;2.28;;;2.08;;
36205;SDS011;22242;48.796;9.930;2022-07-06T07:53:43;2.40;;;2.15;;
36205;SDS011;22242;48.796;9.930;2022-07-06T07:56:10;3.13;;;1.70;;
36205;SDS011;22242;48.796;9.930;2022-07-06T07:58:37;2.00;;;1.77;;
36205;SDS011;22242;48.796;9.930;2022-07-06T08:01:04;3.20;;;2.10;;
36205;SDS011;22242;48.796;9.930;2022-07-06T08:03:31;4.25;;;1.73;;
36205;SDS011;22242;48.796;9.930;2022-07-06T08:06:00;3.03;;;1.75;;
36205;SDS011;22242;48.796;9.930;2022-07-06T08:08:27;4.60;;;1.80;;
36205;SDS011;22242;48.796;9.930;2022-07-06T08:10:54;3.53;;;1.73;;
36205;SDS011;22242;48.796;9.930;2022-07-06T08:13:21;4.50;;;1.80;;
36205;SDS011;22242;48.796;9.930;2022-07-06T08:15:48;4.47;;;1.60;;
36205;SDS011;22242;48.796;9.930;2022-07-06T08:18:15;2.38;;;1.50;;
36205;SDS011;22242;48.796;9.930;2022-07-06T08:20:42;2.55;;;1.45;;
36205;SDS011;22242;48.796;9.930;2022-07-06T08:23:10;3.53;;;1.83;;
36205;SDS011;22242;48.796;9.930;2022-07-06T08:25:38;1.95;;;1.67;;
36205;SDS011;22242;48.796;9.930;2022-07-06T08:28:05;2.47;;;1.75;;
36205;SDS011;22242;48.796;9.930;2022-07-06T08:30:32;2.92;;;1.40;;
36205;SDS011;22242;48.796;9.930;2022-07-06T08:33:00;2.30;;;1.40;;
36205;SDS011;22242;48.796;9.930;2022-07-06T08:35:27;5.47;;;1.77;;
36205;SDS011;22242;48.796;9.930;2022-07-06T08:37:55;2.38;;;2.13;;
36205;SDS011;22242;48.796;9.930;2022-07-06T08:40:23;2.05;;;1.60;;
36205;SDS011;22242;48.796;9.930;2022-07-06T08:42:52;1.80;;;1.30;;
36205;SDS011;22242;48.796;9.930;2022-07-06T08:45:20;3.88;;;1.67;;
36205;SDS011;22242;48.796;9.930;2022-07-06T08:47:49;2.20;;;2.00;;
36205;SDS011;22242;48.796;9.930;2022-07-06T08:50:16;5.43;;;1.85;;
36205;SDS011;22242;48.796;9.930;2022-07-06T08:52:45;1.85;;;1.58;;
36205;SDS011;22242;48.796;9.930;2022-07-06T08:55:14;3.53;;;1.63;;
36205;SDS011;22242;48.796;9.930;2022-07-06T08:57:44;2.08;;;1.83;;
36205;SDS011;22242;48.796;9.930;2022-07-06T09:00:13;2.25;;;1.88;;
36205;SDS011;22242;48.796;9.930;2022-07-06T09:02:40;2.83;;;1.70;;
36205;SDS011;22242;48.796;9.930;2022-07-06T09:05:08;2.83;;;1.50;;
36205;SDS011;22242;48.796;9.930;2022-07-06T09:07:36;2.30;;;1.30;;
36205;SDS011;22242;48.796;9.930;2022-07-06T09:10:04;1.77;;;1.45;;
36205;SDS011;22242;48.796;9.930;2022-07-06T09:12:34;3.17;;;1.60;;
36205;SDS011;22242;48.796;9.930;2022-07-06T09:15:03;2.47;;;1.67;;
36205;SDS011;22242;48.796;9.930;2022-07-06T09:17:32;1.73;;;1.45;;
36205;SDS011;22242;48.796;9.930;2022-07-06T09:22:33;2.30;;;1.40;;
36205;SDS011;22242;48.796;9.930;2022-07-06T09:25:02;1.98;;;1.20;;
36205;SDS011;22242;48.796;9.930;2022-07-06T09:27:31;2.17;;;1.50;;
36205;SDS011;22242;48.796;9.930;2022-07-06T09:29:59;1.98;;;1.30;;
36205;SDS011;22242;48.796;9.930;2022-07-06T09:32:28;2.83;;;1.38;;
36205;SDS011;22242;48.796;9.930;2022-07-06T09:34:55;3.97;;;1.40;;
36205;SDS011;22242;48.796;9.930;2022-07-06T09:37:22;2.33;;;1.52;;
36205;SDS011;22242;48.796;9.930;2022-07-06T09:39:49;2.45;;;1.45;;
36205;SDS011;22242;48.796;9.930;2022-07-06T09:42:17;3.00;;;1.35;;
36205;SDS011;22242;48.796;9.930;2022-07-06T09:44:51;2.28;;;1.48;;
36205;SDS011;22242;48.796;9.930;2022-07-06T09:47:18;3.03;;;1.45;;
36205;SDS011;22242;48.796;9.930;2022-07-06T09:49:47;3.03;;;1.52;;
36205;SDS011;22242;48.796;9.930;2022-07-06T09:52:14;2.20;;;1.30;;
36205;SDS011;22242;48.796;9.930;2022-07-06T09:54:41;2.70;;;1.30;;
36205;SDS011;22242;48.796;9.930;2022-07-06T09:57:08;3.17;;;1.25;;
36205;SDS011;22242;48.796;9.930;2022-07-06T09:59:36;2.15;;;1.25;;
36205;SDS011;22242;48.796;9.930;2022-07-06T10:02:03;3.67;;;1.30;;
36205;SDS011;22242;48.796;9.930;2022-07-06T10:04:32;2.67;;;1.30;;
36205;SDS011;22242;48.796;9.930;2022-07-06T10:07:01;2.55;;;1.30;;
36205;SDS011;22242;48.796;9.930;2022-07-06T10:09:28;2.97;;;1.50;;
36205;SDS011;22242;48.796;9.930;2022-07-06T10:11:58;3.17;;;1.30;;
36205;SDS011;22242;48.796;9.930;2022-07-06T10:14:27;4.25;;;1.50;;
36205;SDS011;22242;48.796;9.930;2022-07-06T10:16:55;1.83;;;1.67;;
36205;SDS011;22242;48.796;9.930;2022-07-06T10:19:23;1.65;;;1.13;;
36205;SDS011;22242;48.796;9.930;2022-07-06T10:21:51;1.75;;;1.40;;
36205;SDS011;22242;48.796;9.930;2022-07-06T10:24:20;1.90;;;1.48;;
36205;SDS011;22242;48.796;9.930;2022-07-06T10:26:48;4.57;;;1.50;;
36205;SDS011;22242;48.796;9.930;2022-07-06T10:29:15;1.83;;;1.42;;
36205;SDS011;22242;48.796;9.930;2022-07-06T10:31:43;2.22;;;1.33;;
36205;SDS011;22242;48.796;9.930;2022-07-06T10:34:14;2.72;;;1.38;;
36205;SDS011;22242;48.796;9.930;2022-07-06T10:36:48;1.67;;;1.40;;
36205;SDS011;22242;48.796;9.930;2022-07-06T10:39:17;2.40;;;1.27;;
36205;SDS011;22242;48.796;9.930;2022-07-06T10:45:11;2.58;;;1.20;;
36205;SDS011;22242;48.796;9.930;2022-07-06T10:47:40;1.83;;;1.60;;
36205;SDS011;22242;48.796;9.930;2022-07-06T10:50:08;1.50;;;1.40;;
36205;SDS011;22242;48.796;9.930;2022-07-06T10:52:48;1.98;;;1.23;;
36205;SDS011;22242;48.796;9.930;2022-07-06T10:55:30;2.70;;;1.40;;
36205;SDS011;22242;48.796;9.930;2022-07-06T10:57:59;1.75;;;1.20;;
36205;SDS011;22242;48.796;9.930;2022-07-06T11:00:26;1.50;;;1.40;;
36205;SDS011;22242;48.796;9.930;2022-07-06T11:03:31;1.85;;;1.13;;
36205;SDS011;22242;48.796;9.930;2022-07-06T11:05:59;3.92;;;1.60;;
36205;SDS011;22242;48.796;9.930;2022-07-06T11:08:40;3.08;;;1.42;;
36205;SDS011;22242;48.796;9.930;2022-07-06T11:11:23;3.38;;;1.48;;
36205;SDS011;22242;48.796;9.930;2022-07-06T11:13:55;2.72;;;1.80;;
36205;SDS011;22242;48.796;9.930;2022-07-06T11:19:05;2.13;;;1.38;;
36205;SDS011;22242;48.796;9.930;2022-07-06T11:21:38;3.53;;;1.98;;
36205;SDS011;22242;48.796;9.930;2022-07-06T11:24:08;4.93;;;1.70;;
36205;SDS011;22242;48.796;9.930;2022-07-06T11:26:38;2.78;;;1.50;;
36205;SDS011;22242;48.796;9.930;2022-07-06T11:29:06;5.93;;;1.63;;
36205;SDS011;22242;48.796;9.930;2022-07-06T11:31:36;2.53;;;1.65;;
36205;SDS011;22242;48.796;9.930;2022-07-06T11:34:04;5.35;;;1.60;;
36205;SDS011;22242;48.796;9.930;2022-07-06T11:36:32;3.25;;;1.60;;
36205;SDS011;22242;48.796;9.930;2022-07-06T11:38:59;1.90;;;1.70;;
36205;SDS011;22242;48.796;9.930;2022-07-06T11:41:26;2.45;;;1.70;;
36205;SDS011;22242;48.796;9.930;2022-07-06T11:43:55;2.42;;;1.50;;
36205;SDS011;22242;48.796;9.930;2022-07-06T11:46:23;3.13;;;1.65;;
36205;SDS011;22242;48.796;9.930;2022-07-06T11:48:53;2.63;;;1.80;;
36205;SDS011;22242;48.796;9.930;2022-07-06T11:51:21;2.42;;;1.70;;
36205;SDS011;22242;48.796;9.930;2022-07-06T11:53:50;3.58;;;1.52;;
36205;SDS011;22242;48.796;9.930;2022-07-06T11:56:18;2.85;;;1.50;;
36205;SDS011;22242;48.796;9.930;2022-07-06T11:58:48;4.85;;;1.60;;
36205;SDS011;22242;48.796;9.930;2022-07-06T12:01:17;2.95;;;1.50;;
36205;SDS011;22242;48.796;9.930;2022-07-06T12:03:45;3.70;;;1.50;;
36205;SDS011;22242;48.796;9.930;2022-07-06T12:06:13;2.15;;;1.58;;
36205;SDS011;22242;48.796;9.930;2022-07-06T12:08:42;4.18;;;1.70;;
36205;SDS011;22242;48.796;9.930;2022-07-06T12:11:10;3.45;;;1.67;;
36205;SDS011;22242;48.796;9.930;2022-07-06T12:13:43;5.20;;;1.48;;
36205;SDS011;22242;48.796;9.930;2022-07-06T12:16:10;4.55;;;1.90;;
36205;SDS011;22242;48.796;9.930;2022-07-06T12:18:39;2.85;;;1.50;;
36205;SDS011;22242;48.796;9.930;2022-07-06T12:21:10;4.88;;;1.88;;
36205;SDS011;22242;48.796;9.930;2022-07-06T12:23:39;2.85;;;1.80;;
36205;SDS011;22242;48.796;9.930;2022-07-06T12:26:08;4.65;;;1.60;;
36205;SDS011;22242;48.796;9.930;2022-07-06T12:28:35;2.13;;;1.40;;
36205;SDS011;22242;48.796;9.930;2022-07-06T12:31:03;4.13;;;1.20;;
36205;SDS011;22242;48.796;9.930;2022-07-06T12:33:30;2.47;;;1.20;;
36205;SDS011;22242;48.796;9.930;2022-07-06T12:36:09;3.58;;;1.45;;
36205;SDS011;22242;48.796;9.930;2022-07-06T12:38:43;2.45;;;1.52;;
36205;SDS011;22242;48.796;9.930;2022-07-06T12:41:24;1.75;;;1.30;;
36205;SDS011;22242;48.796;9.930;2022-07-06T12:44:06;2.60;;;1.50;;
36205;SDS011;22242;48.796;9.930;2022-07-06T12:46:34;3.20;;;1.20;;
36205;SDS011;22242;48.796;9.930;2022-07-06T12:49:04;3.83;;;1.60;;
36205;SDS011;22242;48.796;9.930;2022-07-06T12:51:59;3.85;;;1.60;;
36205;SDS011;22242;48.796;9.930;2022-07-06T12:54:30;3.67;;;1.48;;
36205;SDS011;22242;48.796;9.930;2022-07-06T12:57:09;2.20;;;1.25;;
36205;SDS011;22242;48.796;9.930;2022-07-06T12:59:39;2.67;;;1.55;;
36205;SDS011;22242;48.796;9.930;2022-07-06T13:02:16;3.70;;;1.40;;
36205;SDS011;22242;48.796;9.930;2022-07-06T13:04:53;3.33;;;1.25;;
36205;SDS011;22242;48.796;9.930;2022-07-06T13:07:23;1.77;;;1.40;;
36205;SDS011;22242;48.796;9.930;2022-07-06T13:09:52;3.10;;;1.35;;
36205;SDS011;22242;48.796;9.930;2022-07-06T13:12:19;3.53;;;1.30;;
36205;SDS011;22242;48.796;9.930;2022-07-06T13:14:46;7.22;;;1.10;;
36205;SDS011;22242;48.796;9.930;2022-07-06T13:17:13;4.28;;;1.15;;
36205;SDS011;22242;48.796;9.930;2022-07-06T13:19:40;2.55;;;1.10;;
36205;SDS011;22242;48.796;9.930;2022-07-06T13:22:07;1.27;;;1.17;;
36205;SDS011;22242;48.796;9.930;2022-07-06T13:24:36;1.60;;;1.30;;
36205;SDS011;22242;48.796;9.930;2022-07-06T13:27:03;3.53;;;1.30;;
36205;SDS011;22242;48.796;9.930;2022-07-06T13:29:31;10.55;;;1.75;;
36205;SDS011;22242;48.796;9.930;2022-07-06T13:31:58;5.85;;;1.42;;
36205;SDS011;22242;48.796;9.930;2022-07-06T13:34:25;3.97;;;1.50;;
36205;SDS011;22242;48.796;9.930;2022-07-06T13:36:52;2.47;;;1.50;;
36205;SDS011;22242;48.796;9.930;2022-07-06T13:39:19;1.40;;;1.30;;
36205;SDS011;22242;48.796;9.930;2022-07-06T13:41:48;2.55;;;1.50;;
36205;SDS011;22242;48.796;9.930;2022-07-06T13:44:15;6.60;;;1.40;;
36205;SDS011;22242;48.796;9.930;2022-07-06T13:46:42;4.55;;;1.50;;
36205;SDS011;22242;48.796;9.930;2022-07-06T13:49:10;3.20;;;1.50;;
36205;SDS011;22242;48.796;9.930;2022-07-06T13:51:37;2.17;;;1.70;;
36205;SDS011;22242;48.796;9.930;2022-07-06T13:54:05;6.07;;;1.73;;
36205;SDS011;22242;48.796;9.930;2022-07-06T13:56:32;4.53;;;1.42;;
36205;SDS011;22242;48.796;9.930;2022-07-06T13:59:00;2.50;;;1.60;;
36205;SDS011;22242;48.796;9.930;2022-07-06T14:01:27;2.28;;;1.65;;
36205;SDS011;22242;48.796;9.930;2022-07-06T14:03:55;3.50;;;1.60;;
36205;SDS011;22242;48.796;9.930;2022-07-06T14:06:22;4.63;;;1.75;;
36205;SDS011;22242;48.796;9.930;2022-07-06T14:08:49;4.63;;;1.77;;
36205;SDS011;22242;48.796;9.930;2022-07-06T14:11:16;7.30;;;2.10;;
36205;SDS011;22242;48.796;9.930;2022-07-06T14:13:43;6.22;;;2.05;;
36205;SDS011;22242;48.796;9.930;2022-07-06T14:16:12;4.32;;;1.70;;
36205;SDS011;22242;48.796;9.930;2022-07-06T14:18:39;5.75;;;1.55;;
36205;SDS011;22242;48.796;9.930;2022-07-06T14:21:08;2.92;;;1.83;;
36205;SDS011;22242;48.796;9.930;2022-07-06T14:23:36;5.38;;;2.10;;
36205;SDS011;22242;48.796;9.930;2022-07-06T14:26:03;5.15;;;1.80;;
36205;SDS011;22242;48.796;9.930;2022-07-06T14:28:31;4.20;;;2.15;;
36205;SDS011;22242;48.796;9.930;2022-07-06T14:30:58;9.77;;;2.20;;
36205;SDS011;22242;48.796;9.930;2022-07-06T14:33:29;3.30;;;2.05;;
36205;SDS011;22242;48.796;9.930;2022-07-06T14:35:56;4.38;;;1.75;;
36205;SDS011;22242;48.796;9.930;2022-07-06T14:38:24;2.80;;;1.77;;
36205;SDS011;22242;48.796;9.930;2022-07-06T14:40:52;4.28;;;2.20;;
36205;SDS011;22242;48.796;9.930;2022-07-06T14:43:19;3.75;;;2.05;;
36205;SDS011;22242;48.796;9.930;2022-07-06T14:45:46;4.40;;;2.20;;
36205;SDS011;22242;48.796;9.930;2022-07-06T14:48:13;3.35;;;1.77;;
36205;SDS011;22242;48.796;9.930;2022-07-06T14:50:43;7.60;;;2.03;;
36205;SDS011;22242;48.796;9.930;2022-07-06T14:53:10;9.18;;;2.65;;
36205;SDS011;22242;48.796;9.930;2022-07-06T14:55:37;4.82;;;1.92;;
36205;SDS011;22242;48.796;9.930;2022-07-06T14:58:03;3.15;;;2.10;;
36205;SDS011;22242;48.796;9.930;2022-07-06T15:00:30;6.47;;;2.13;;
36205;SDS011;22242;48.796;9.930;2022-07-06T15:02:57;6.20;;;2.45;;
36205;SDS011;22242;48.796;9.930;2022-07-06T15:05:25;5.03;;;2.03;;
36205;SDS011;22242;48.796;9.930;2022-07-06T15:07:53;5.18;;;2.13;;